Portada
METAR-TAF:

METAR-TAF

Aeroports :

Cairns, Austràlia

latitud: 16-53S, longitud: 145-45E, altitud: 3 m

Observació

L'informe es va fer fa 25 minuts, a les 08:00 UTC
Vent 6 kt del Sud/Sud-Est
Temperatura 26°C
Humitat 58%
Pressió 1013 hPa
Visibilitat 10 km o més
Escasses núvols a una alçada de 2500 ft

METAR: YBCS 120800Z AUTO 10007KT 9999 // NCD 26/17 Q1013 RF00.0/000.0 FM0900 16006KT 9999 FEW025

Hora: 18:25 (08:25 UTC)

Pronòstic

L'informe es va fer fa 3 hores i 8 minuts, a les 05:17 UTC
Pronòstic vàlid del 12 a les 06 UTC al 13 a les 06 UTC
Vent 13 kt del Nord-Est
Visibilitat 10 km o més
Escasses núvols a una alçada de 3500 ft
A partir de les 12 a les 0900 UTC
Vent 6 kt del Sud/Sud-Est
Visibilitat 10 km o més
Escasses núvols a una alçada de 2500 ft
A partir de les 13 a les 0000 UTC
Vent 12 kt del Nord-Est
Visibilitat 10 km o més
Escasses núvols a una alçada de 3000 ft

TAF: YBCS 120517Z 1206/1306 05013KT 9999 FEW035 FM120900 16006KT 9999 FEW025 FM130000 05012KT 9999 FEW030

Observacions i pronòstics meteorològics de més de 4000 aeroports (METAR i TAF).

Les estacions disponibles són els punts grocs i vermells al mapa.

Posi el ratolí al punt desitjat per veure el nom de l'estació.

Feu clic per veure les observacions i els pronòstics meteorològics.

Per canviar el mapa: feu clic els botons verds amb una creu de color negre per apropar; al botó verd amb un guió per allunyar la imatge; o en les fletxes verdes per a mapes adjacents.


METAR-TAF: